createdAt,value
2022-09-03T00:00:14.570Z,3.00
2022-09-03T00:05:20.055Z,3.00
2022-09-03T00:10:25.431Z,3.00
2022-09-03T00:15:29.517Z,3.80
2022-09-03T00:20:33.173Z,2.80
2022-09-03T00:25:38.559Z,2.00
2022-09-03T00:30:43.813Z,3.00
2022-09-03T00:35:48.602Z,3.20
2022-09-03T00:41:01.613Z,3.00
2022-09-03T00:46:08.962Z,3.00
2022-09-03T00:51:16.809Z,2.20
2022-09-03T00:56:23.269Z,2.00
2022-09-03T01:01:31.055Z,3.80
2022-09-03T01:06:36.667Z,2.00
2022-09-03T01:11:47.136Z,3.00
2022-09-03T01:16:53.318Z,2.80
2022-09-03T01:22:05.589Z,3.40
2022-09-03T01:27:16.531Z,3.00
2022-09-03T01:32:24.921Z,2.00
2022-09-03T01:37:34.042Z,3.00
2022-09-03T01:42:44.076Z,2.00
2022-09-03T01:47:56.081Z,2.60
2022-09-03T01:53:03.024Z,3.80
2022-09-03T01:58:07.617Z,2.00
2022-09-03T02:03:11.576Z,4.00
2022-09-03T02:08:14.223Z,3.00
2022-09-03T02:13:18.483Z,3.00
2022-09-03T02:18:24.083Z,3.00
2022-09-03T02:23:31.935Z,3.00
2022-09-03T02:28:34.632Z,2.60
2022-09-03T02:33:39.825Z,2.20
2022-09-03T02:38:43.031Z,2.00
2022-09-03T02:43:48.531Z,3.00
2022-09-03T02:48:53.009Z,3.00
2022-09-03T02:53:55.943Z,2.00
2022-09-03T02:58:58.679Z,3.00
2022-09-03T03:04:03.032Z,2.60
2022-09-03T03:09:07.019Z,3.60
2022-09-03T03:14:10.669Z,2.60
2022-09-03T03:19:14.758Z,3.00
2022-09-03T03:24:17.555Z,1.80
2022-09-03T03:29:20.667Z,3.00
2022-09-03T03:34:24.693Z,3.00
2022-09-03T03:39:27.463Z,4.40
2022-09-03T03:44:30.185Z,3.80
2022-09-03T03:49:34.526Z,2.80
2022-09-03T03:54:37.339Z,3.00
2022-09-03T03:59:40.061Z,3.00
2022-09-03T04:04:44.232Z,2.00
2022-09-03T04:09:47.335Z,4.00
2022-09-03T04:14:50.283Z,3.00
2022-09-03T04:19:54.328Z,3.60
2022-09-03T04:24:57.114Z,2.00
2022-09-03T04:29:59.849Z,2.40
2022-09-03T04:35:06.707Z,3.00
2022-09-03T04:40:10.044Z,2.60
2022-09-03T04:45:18.660Z,3.60
2022-09-03T04:50:23.655Z,3.60
2022-09-03T04:55:35.160Z,3.00
2022-09-03T05:00:37.947Z,3.00
2022-09-03T05:05:42.418Z,3.40
2022-09-03T05:10:45.084Z,3.00
2022-09-03T05:15:47.958Z,4.00
2022-09-03T05:20:59.023Z,3.00
2022-09-03T05:26:02.568Z,3.20
2022-09-03T05:31:06.468Z,3.00
2022-09-03T05:36:13.076Z,2.60
2022-09-03T05:41:16.236Z,3.20
2022-09-03T05:46:21.692Z,3.20
2022-09-03T05:51:25.715Z,3.00
2022-09-03T05:56:29.732Z,3.00
2022-09-03T06:01:33.141Z,3.60
2022-09-03T06:06:38.231Z,3.00
2022-09-03T06:11:42.680Z,3.60
2022-09-03T06:16:48.921Z,3.20
2022-09-03T06:21:53.119Z,3.20
2022-09-03T06:26:56.229Z,3.40
2022-09-03T06:31:59.425Z,3.00
2022-09-03T06:37:03.478Z,4.00
2022-09-03T06:42:06.805Z,3.40
2022-09-03T06:47:12.373Z,2.40
2022-09-03T06:52:16.617Z,3.00
2022-09-03T06:57:20.351Z,3.80
2022-09-03T07:02:23.253Z,3.40
2022-09-03T07:07:27.481Z,3.00
2022-09-03T07:12:30.181Z,4.00
2022-09-03T07:17:32.884Z,4.60
2022-09-03T07:22:37.022Z,5.60
2022-09-03T07:27:39.758Z,3.60
2022-09-03T07:32:42.483Z,4.00
2022-09-03T07:37:46.556Z,3.00
2022-09-03T07:42:54.540Z,4.60
2022-09-03T07:47:57.935Z,8.00
2022-09-03T07:53:02.053Z,5.00
2022-09-03T07:58:04.814Z,7.60
2022-09-03T08:03:08.753Z,5.60
2022-09-03T08:08:25.588Z,4.40
2022-09-03T08:13:33.964Z,5.00
2022-09-03T08:18:37.696Z,5.00
2022-09-03T08:23:42.650Z,4.00
2022-09-03T08:28:45.522Z,4.00
2022-09-03T08:33:49.030Z,3.80
2022-09-03T08:38:55.196Z,4.00
2022-09-03T08:44:08.752Z,4.00
2022-09-03T08:49:12.409Z,7.00
2022-09-03T08:54:16.422Z,4.80
2022-09-03T08:59:20.813Z,5.80
2022-09-03T09:04:42.190Z,4.00
2022-09-03T09:09:49.887Z,4.80
2022-09-03T09:15:00.301Z,4.00
2022-09-03T09:20:08.134Z,4.60
2022-09-03T09:25:14.605Z,4.00
2022-09-03T09:30:18.079Z,5.00
2022-09-03T09:35:21.052Z,4.40
2022-09-03T09:40:33.044Z,4.60
2022-09-03T09:45:37.305Z,4.20
2022-09-03T09:50:40.052Z,6.60
2022-09-03T09:55:54.603Z,4.00
2022-09-03T10:01:03.069Z,4.60
2022-09-03T10:06:21.392Z,4.80
2022-09-03T10:11:27.468Z,4.00
2022-09-03T10:16:31.638Z,4.20
2022-09-03T10:21:38.963Z,5.00
2022-09-03T10:26:44.589Z,4.20
2022-09-03T10:31:55.203Z,5.00
2022-09-03T10:37:01.480Z,4.00
2022-09-03T10:42:09.609Z,5.20
2022-09-03T10:47:21.705Z,4.00
2022-09-03T10:52:28.714Z,3.80
2022-09-03T10:57:39.080Z,3.40
2022-09-03T11:03:07.350Z,3.40
2022-09-03T11:08:13.297Z,3.00
2022-09-03T11:13:20.087Z,4.80
2022-09-03T11:18:25.039Z,5.00
2022-09-03T11:23:28.368Z,4.00
2022-09-03T11:28:38.557Z,5.20
2022-09-03T11:33:42.810Z,4.00
2022-09-03T11:38:45.673Z,4.00
2022-09-03T11:43:49.994Z,3.60
2022-09-03T11:48:53.918Z,4.00
2022-09-03T11:53:57.017Z,5.00
2022-09-03T11:59:04.145Z,4.40
2022-09-03T12:04:07.650Z,4.00
2022-09-03T12:09:21.234Z,3.40
2022-09-03T12:14:28.180Z,4.60
2022-09-03T12:19:36.583Z,6.00
2022-09-03T12:24:39.428Z,4.00
2022-09-03T12:29:51.855Z,4.00
2022-09-03T12:34:54.958Z,5.00
2022-09-03T12:40:07.759Z,4.20
2022-09-03T12:45:16.470Z,4.20
2022-09-03T12:50:20.491Z,4.20
2022-09-03T12:55:29.096Z,4.40
2022-09-03T13:00:33.952Z,5.80
2022-09-03T13:05:39.061Z,13.20
2022-09-03T13:10:42.511Z,16.00
2022-09-03T13:15:57.233Z,16.20
2022-09-03T13:21:08.050Z,16.00
2022-09-03T13:26:18.791Z,19.50
2022-09-03T13:31:28.206Z,21.00
2022-09-03T13:36:32.629Z,13.80
2022-09-03T13:41:38.724Z,14.40
2022-09-03T13:46:45.761Z,13.00
2022-09-03T13:51:50.529Z,14.40
2022-09-03T13:56:57.690Z,10.80
2022-09-03T14:02:08.508Z,12.80
2022-09-03T14:07:14.750Z,11.80
2022-09-03T14:12:19.551Z,8.80
2022-09-03T14:17:32.073Z,8.80
2022-09-03T14:22:42.436Z,10.20
2022-09-03T14:27:45.155Z,8.20
2022-09-03T14:32:51.421Z,8.00
2022-09-03T14:38:12.413Z,7.40
2022-09-03T14:43:49.576Z,8.00
2022-09-03T14:49:05.198Z,6.00
2022-09-03T14:54:38.391Z,7.00
2022-09-03T14:59:51.851Z,7.20
2022-09-03T15:05:09.588Z,6.00
2022-09-03T15:10:19.140Z,7.60
2022-09-03T15:15:22.873Z,5.80
2022-09-03T15:20:33.127Z,5.80
2022-09-03T15:25:43.508Z,6.80
2022-09-03T15:30:47.173Z,4.80
2022-09-03T15:36:08.603Z,6.20
2022-09-03T15:41:30.939Z,7.40
2022-09-03T15:46:38.603Z,7.60
2022-09-03T15:51:47.103Z,12.80
2022-09-03T15:56:54.674Z,34.67
2022-09-03T16:01:58.875Z,51.00
2022-09-03T16:07:05.024Z,54.50
2022-09-03T16:12:12.331Z,48.25
2022-09-03T16:17:20.747Z,40.00
2022-09-03T16:22:27.908Z,30.50
2022-09-03T16:27:33.593Z,31.25
2022-09-03T16:32:57.538Z,25.00
2022-09-03T16:38:10.215Z,20.75
2022-09-03T16:43:39.700Z,18.00
2022-09-03T16:48:49.202Z,20.25
2022-09-03T16:54:08.424Z,17.60
2022-09-03T16:59:16.885Z,19.00
2022-09-03T17:04:36.636Z,15.00
2022-09-03T17:09:56.320Z,14.40
2022-09-03T17:15:14.168Z,12.00
2022-09-03T17:20:19.985Z,10.60
2022-09-03T17:25:29.955Z,10.80
2022-09-03T17:30:40.600Z,10.80
2022-09-03T17:35:47.867Z,9.00
2022-09-03T17:40:59.409Z,7.20
2022-09-03T17:46:09.635Z,9.00
2022-09-03T17:51:16.285Z,7.80
2022-09-03T17:56:24.565Z,8.80
2022-09-03T18:01:28.741Z,8.60
2022-09-03T18:06:34.042Z,8.20
2022-09-03T18:11:39.493Z,8.60
2022-09-03T18:16:43.341Z,6.00
2022-09-03T18:22:04.838Z,8.60
2022-09-03T18:27:28.611Z,6.20
2022-09-03T18:32:49.437Z,11.00
2022-09-03T18:38:09.513Z,17.25
2022-09-03T18:43:33.389Z,14.60
2022-09-03T18:48:55.064Z,13.20
2022-09-03T18:54:21.545Z,13.60
2022-09-03T18:59:51.647Z,12.20
2022-09-03T19:05:18.189Z,15.00
2022-09-03T19:10:39.754Z,15.00
2022-09-03T19:16:04.040Z,14.20
2022-09-03T19:21:30.045Z,15.00
2022-09-03T19:26:56.398Z,14.40
2022-09-03T19:32:19.940Z,15.20
2022-09-03T19:37:42.084Z,14.00
2022-09-03T19:43:08.478Z,14.00
2022-09-03T19:48:47.727Z,13.40
2022-09-03T19:54:08.135Z,14.00
2022-09-03T19:59:30.989Z,13.00
2022-09-03T20:04:54.663Z,14.40
2022-09-03T20:10:16.647Z,15.00
2022-09-03T20:15:19.424Z,12.40
2022-09-03T20:20:25.636Z,14.20
2022-09-03T20:25:38.904Z,12.80
2022-09-03T20:30:43.752Z,13.00
2022-09-03T20:35:53.486Z,11.00
2022-09-03T20:41:10.603Z,13.60
2022-09-03T20:46:25.862Z,13.20
2022-09-03T20:51:34.932Z,13.00
2022-09-03T20:56:48.057Z,13.20
2022-09-03T21:01:53.830Z,14.00
2022-09-03T21:07:00.873Z,13.60
2022-09-03T21:12:06.813Z,12.40
2022-09-03T21:17:21.365Z,13.20
2022-09-03T21:22:29.664Z,12.00
2022-09-03T21:27:34.506Z,12.80
2022-09-03T21:32:42.156Z,12.20
2022-09-03T21:37:51.167Z,12.20
2022-09-03T21:42:55.198Z,13.00
2022-09-03T21:47:59.680Z,13.00
2022-09-03T21:53:04.925Z,13.00
2022-09-03T21:58:15.094Z,12.00
2022-09-03T22:03:17.954Z,12.60
2022-09-03T22:08:24.701Z,14.20
2022-09-03T22:13:30.949Z,13.00
2022-09-03T22:18:37.860Z,11.40
2022-09-03T22:23:48.030Z,11.60
2022-09-03T22:28:57.741Z,11.00
2022-09-03T22:34:04.710Z,10.40
2022-09-03T22:39:15.038Z,11.80
2022-09-03T22:44:25.876Z,11.00
2022-09-03T22:49:32.982Z,11.20
2022-09-03T22:54:44.396Z,10.00
2022-09-03T22:59:51.113Z,12.00
2022-09-03T23:05:01.965Z,11.20
2022-09-03T23:10:07.595Z,11.60
2022-09-03T23:15:11.431Z,13.60
2022-09-03T23:20:16.136Z,12.80
2022-09-03T23:25:21.415Z,11.60
2022-09-03T23:30:24.131Z,13.00
2022-09-03T23:35:28.042Z,13.00
2022-09-03T23:40:45.953Z,14.00
2022-09-03T23:45:51.378Z,14.60
2022-09-03T23:50:59.254Z,15.40
2022-09-03T23:56:09.084Z,14.20
